sensor_id;sensor_type;location;lat;lon;timestamp;pressure;altitude;pressure_sealevel;temperature;humidity
35151;BME280;55720;51.972;4.624;2022-08-19T00:00:41;101435.69;;;16.56;100.00
35151;BME280;55720;51.972;4.624;2022-08-19T00:03:06;101434.50;;;16.57;100.00
35151;BME280;55720;51.972;4.624;2022-08-19T00:05:32;101428.13;;;16.57;100.00
35151;BME280;55720;51.972;4.624;2022-08-19T00:07:58;101421.63;;;16.49;100.00
35151;BME280;55720;51.972;4.624;2022-08-19T00:10:23;101414.44;;;16.48;100.00
35151;BME280;55720;51.972;4.624;2022-08-19T00:12:49;101419.91;;;16.45;100.00
35151;BME280;55720;51.972;4.624;2022-08-19T00:15:17;101427.41;;;16.44;100.00
35151;BME280;55720;51.972;4.624;2022-08-19T00:17:44;101434.13;;;16.43;100.00
35151;BME280;55720;51.972;4.624;2022-08-19T00:20:12;101427.31;;;16.41;100.00
35151;BME280;55720;51.972;4.624;2022-08-19T00:22:39;101419.09;;;16.44;100.00
35151;BME280;55720;51.972;4.624;2022-08-19T00:25:06;101422.38;;;16.50;100.00
35151;BME280;55720;51.972;4.624;2022-08-19T00:27:32;101419.91;;;16.45;100.00
35151;BME280;55720;51.972;4.624;2022-08-19T00:29:57;101419.72;;;16.38;100.00
35151;BME280;55720;51.972;4.624;2022-08-19T00:32:24;101427.16;;;16.34;100.00
35151;BME280;55720;51.972;4.624;2022-08-19T00:34:50;101432.59;;;16.30;100.00
35151;BME280;55720;51.972;4.624;2022-08-19T00:37:18;101426.69;;;16.32;100.00
35151;BME280;55720;51.972;4.624;2022-08-19T00:39:44;101422.31;;;16.46;100.00
35151;BME280;55720;51.972;4.624;2022-08-19T00:42:09;101425.88;;;16.47;100.00
35151;BME280;55720;51.972;4.624;2022-08-19T00:44:35;101422.78;;;16.48;100.00
35151;BME280;55720;51.972;4.624;2022-08-19T00:47:00;101429.56;;;16.51;100.00
35151;BME280;55720;51.972;4.624;2022-08-19T00:52:20;101435.72;;;16.44;100.00
35151;BME280;55720;51.972;4.624;2022-08-19T00:54:47;101430.81;;;16.38;100.00
35151;BME280;55720;51.972;4.624;2022-08-19T00:57:17;101432.31;;;16.35;100.00
35151;BME280;55720;51.972;4.624;2022-08-19T00:59:46;101437.84;;;16.35;100.00
35151;BME280;55720;51.972;4.624;2022-08-19T01:02:14;101447.44;;;16.38;100.00
35151;BME280;55720;51.972;4.624;2022-08-19T01:04:39;101455.47;;;16.43;100.00
35151;BME280;55720;51.972;4.624;2022-08-19T01:07:05;101458.25;;;16.43;100.00
35151;BME280;55720;51.972;4.624;2022-08-19T01:09:31;101456.75;;;16.45;100.00
35151;BME280;55720;51.972;4.624;2022-08-19T01:11:57;101454.31;;;16.44;100.00
35151;BME280;55720;51.972;4.624;2022-08-19T01:14:23;101454.78;;;16.46;100.00
35151;BME280;55720;51.972;4.624;2022-08-19T01:16:49;101449.25;;;16.46;100.00
35151;BME280;55720;51.972;4.624;2022-08-19T01:19:21;101451.56;;;16.44;100.00
35151;BME280;55720;51.972;4.624;2022-08-19T01:24:35;101455.28;;;16.36;100.00
35151;BME280;55720;51.972;4.624;2022-08-19T01:27:04;101457.00;;;16.40;100.00
35151;BME280;55720;51.972;4.624;2022-08-19T01:29:30;101449.75;;;16.36;100.00
35151;BME280;55720;51.972;4.624;2022-08-19T01:31:55;101458.44;;;16.34;100.00
35151;BME280;55720;51.972;4.624;2022-08-19T01:34:20;101462.72;;;16.32;100.00
35151;BME280;55720;51.972;4.624;2022-08-19T01:36:47;101459.75;;;16.24;100.00
35151;BME280;55720;51.972;4.624;2022-08-19T01:39:24;101458.69;;;16.29;100.00
35151;BME280;55720;51.972;4.624;2022-08-19T01:41:50;101468.16;;;16.28;100.00
35151;BME280;55720;51.972;4.624;2022-08-19T01:44:20;101480.31;;;16.23;100.00
35151;BME280;55720;51.972;4.624;2022-08-19T01:46:49;101480.91;;;16.17;100.00
35151;BME280;55720;51.972;4.624;2022-08-19T01:49:16;101496.84;;;16.20;100.00
35151;BME280;55720;51.972;4.624;2022-08-19T01:51:42;101498.09;;;16.22;100.00
35151;BME280;55720;51.972;4.624;2022-08-19T01:54:10;101492.00;;;16.17;100.00
35151;BME280;55720;51.972;4.624;2022-08-19T01:56:37;101489.13;;;16.13;100.00
35151;BME280;55720;51.972;4.624;2022-08-19T01:59:08;101485.41;;;16.21;100.00
35151;BME280;55720;51.972;4.624;2022-08-19T02:01:35;101480.28;;;16.08;100.00
35151;BME280;55720;51.972;4.624;2022-08-19T02:04:00;101478.66;;;16.07;100.00
35151;BME280;55720;51.972;4.624;2022-08-19T02:06:26;101488.50;;;16.04;100.00
35151;BME280;55720;51.972;4.624;2022-08-19T02:08:52;101499.47;;;16.01;100.00
35151;BME280;55720;51.972;4.624;2022-08-19T02:11:24;101521.63;;;16.01;100.00
35151;BME280;55720;51.972;4.624;2022-08-19T02:13:52;101528.22;;;15.96;100.00
35151;BME280;55720;51.972;4.624;2022-08-19T02:16:18;101537.00;;;15.98;100.00
35151;BME280;55720;51.972;4.624;2022-08-19T02:18:44;101542.56;;;15.98;100.00
35151;BME280;55720;51.972;4.624;2022-08-19T02:21:10;101553.25;;;16.00;100.00
35151;BME280;55720;51.972;4.624;2022-08-19T02:23:36;101550.16;;;16.01;100.00
35151;BME280;55720;51.972;4.624;2022-08-19T02:26:01;101547.00;;;16.03;100.00
35151;BME280;55720;51.972;4.624;2022-08-19T02:28:26;101543.81;;;16.01;100.00
35151;BME280;55720;51.972;4.624;2022-08-19T02:30:52;101546.91;;;15.99;100.00
35151;BME280;55720;51.972;4.624;2022-08-19T02:33:17;101550.16;;;16.01;100.00
35151;BME280;55720;51.972;4.624;2022-08-19T02:35:46;101555.22;;;15.99;100.00
35151;BME280;55720;51.972;4.624;2022-08-19T02:38:12;101556.03;;;16.00;100.00
35151;BME280;55720;51.972;4.624;2022-08-19T02:41:03;101547.00;;;16.03;100.00
35151;BME280;55720;51.972;4.624;2022-08-19T02:43:30;101547.63;;;15.96;100.00
35151;BME280;55720;51.972;4.624;2022-08-19T02:45:56;101537.25;;;15.93;100.00
35151;BME280;55720;51.972;4.624;2022-08-19T02:48:24;101538.88;;;15.94;100.00
35151;BME280;55720;51.972;4.624;2022-08-19T02:50:51;101536.53;;;15.96;100.00
35151;BME280;55720;51.972;4.624;2022-08-19T02:53:23;101532.50;;;15.94;100.00
35151;BME280;55720;51.972;4.624;2022-08-19T02:55:50;101531.25;;;15.91;100.00
35151;BME280;55720;51.972;4.624;2022-08-19T02:58:16;101523.63;;;15.88;100.00
35151;BME280;55720;51.972;4.624;2022-08-19T03:00:47;101535.19;;;15.90;100.00
35151;BME280;55720;51.972;4.624;2022-08-19T03:03:14;101537.47;;;15.88;100.00
35151;BME280;55720;51.972;4.624;2022-08-19T03:05:41;101552.25;;;15.92;100.00
35151;BME280;55720;51.972;4.624;2022-08-19T03:08:06;101552.25;;;15.92;100.00
35151;BME280;55720;51.972;4.624;2022-08-19T03:10:39;101553.63;;;15.98;100.00
35151;BME280;55720;51.972;4.624;2022-08-19T03:13:05;101547.97;;;15.95;100.00
35151;BME280;55720;51.972;4.624;2022-08-19T03:15:30;101554.06;;;16.00;100.00
35151;BME280;55720;51.972;4.624;2022-08-19T03:17:55;101554.75;;;16.09;100.00
35151;BME280;55720;51.972;4.624;2022-08-19T03:20:21;101558.47;;;16.01;100.00
35151;BME280;55720;51.972;4.624;2022-08-19T03:22:46;101560.06;;;16.02;100.00
35151;BME280;55720;51.972;4.624;2022-08-19T03:25:12;101562.75;;;15.99;100.00
35151;BME280;55720;51.972;4.624;2022-08-19T03:27:37;101567.91;;;16.00;100.00
35151;BME280;55720;51.972;4.624;2022-08-19T03:30:03;101571.84;;;15.99;100.00
35151;BME280;55720;51.972;4.624;2022-08-19T03:32:29;101579.22;;;15.95;100.00
35151;BME280;55720;51.972;4.624;2022-08-19T03:34:54;101584.56;;;15.88;100.00
35151;BME280;55720;51.972;4.624;2022-08-19T03:37:19;101586.88;;;15.86;100.00
35151;BME280;55720;51.972;4.624;2022-08-19T03:39:45;101590.47;;;15.87;100.00
35151;BME280;55720;51.972;4.624;2022-08-19T03:42:11;101603.94;;;15.88;100.00
35151;BME280;55720;51.972;4.624;2022-08-19T03:44:37;101605.13;;;15.87;100.00
35151;BME280;55720;51.972;4.624;2022-08-19T03:47:03;101613.97;;;15.93;100.00
35151;BME280;55720;51.972;4.624;2022-08-19T03:49:30;101610.88;;;15.94;100.00
35151;BME280;55720;51.972;4.624;2022-08-19T03:51:57;101620.09;;;15.98;100.00
35151;BME280;55720;51.972;4.624;2022-08-19T03:54:24;101628.16;;;16.03;100.00
35151;BME280;55720;51.972;4.624;2022-08-19T03:56:52;101628.03;;;16.00;100.00
35151;BME280;55720;51.972;4.624;2022-08-19T03:59:22;101624.22;;;16.16;100.00
35151;BME280;55720;51.972;4.624;2022-08-19T04:01:51;101644.03;;;16.18;100.00
35151;BME280;55720;51.972;4.624;2022-08-19T04:04:17;101641.34;;;16.34;100.00
35151;BME280;55720;51.972;4.624;2022-08-19T04:06:42;101649.69;;;16.50;100.00
35151;BME280;55720;51.972;4.624;2022-08-19T04:09:10;101653.88;;;16.56;100.00
35151;BME280;55720;51.972;4.624;2022-08-19T04:11:42;101657.31;;;16.65;100.00
35151;BME280;55720;51.972;4.624;2022-08-19T04:14:09;101660.25;;;16.72;100.00
35151;BME280;55720;51.972;4.624;2022-08-19T04:16:36;101667.97;;;16.79;100.00
35151;BME280;55720;51.972;4.624;2022-08-19T04:19:03;101675.59;;;16.82;100.00
35151;BME280;55720;51.972;4.624;2022-08-19T04:21:29;101674.53;;;16.86;100.00
35151;BME280;55720;51.972;4.624;2022-08-19T04:23:56;101679.16;;;16.82;100.00
35151;BME280;55720;51.972;4.624;2022-08-19T04:26:24;101688.59;;;16.93;100.00
35151;BME280;55720;51.972;4.624;2022-08-19T04:28:50;101692.28;;;16.97;100.00
35151;BME280;55720;51.972;4.624;2022-08-19T04:31:28;101698.81;;;17.05;100.00
35151;BME280;55720;51.972;4.624;2022-08-19T04:33:59;101702.75;;;17.04;100.00
35151;BME280;55720;51.972;4.624;2022-08-19T04:36:28;101708.38;;;17.07;100.00
35151;BME280;55720;51.972;4.624;2022-08-19T04:38:55;101716.38;;;17.09;100.00
35151;BME280;55720;51.972;4.624;2022-08-19T04:41:21;101718.44;;;17.12;100.00
35151;BME280;55720;51.972;4.624;2022-08-19T04:44:05;101733.22;;;17.16;100.00
35151;BME280;55720;51.972;4.624;2022-08-19T04:46:32;101739.16;;;17.30;100.00
35151;BME280;55720;51.972;4.624;2022-08-19T04:49:03;101753.31;;;17.41;100.00
35151;BME280;55720;51.972;4.624;2022-08-19T04:51:29;101748.94;;;17.40;100.00
35151;BME280;55720;51.972;4.624;2022-08-19T04:53:56;101759.22;;;17.39;100.00
35151;BME280;55720;51.972;4.624;2022-08-19T04:56:22;101769.34;;;17.47;100.00
35151;BME280;55720;51.972;4.624;2022-08-19T04:58:48;101777.75;;;17.51;100.00
35151;BME280;55720;51.972;4.624;2022-08-19T05:01:20;101787.13;;;17.58;100.00
35151;BME280;55720;51.972;4.624;2022-08-19T05:03:46;101792.31;;;17.60;100.00
35151;BME280;55720;51.972;4.624;2022-08-19T05:06:14;101797.63;;;17.65;100.00
35151;BME280;55720;51.972;4.624;2022-08-19T05:08:40;101815.88;;;17.66;100.00
35151;BME280;55720;51.972;4.624;2022-08-19T05:11:18;101814.47;;;17.72;100.00
35151;BME280;55720;51.972;4.624;2022-08-19T05:13:46;101826.84;;;17.75;100.00
35151;BME280;55720;51.972;4.624;2022-08-19T05:16:12;101831.13;;;17.88;100.00
35151;BME280;55720;51.972;4.624;2022-08-19T05:18:39;101834.47;;;17.93;100.00
35151;BME280;55720;51.972;4.624;2022-08-19T05:21:24;101841.03;;;18.01;100.00
35151;BME280;55720;51.972;4.624;2022-08-19T05:24:08;101841.91;;;18.05;100.00
35151;BME280;55720;51.972;4.624;2022-08-19T05:26:38;101848.91;;;18.14;100.00
35151;BME280;55720;51.972;4.624;2022-08-19T05:29:05;101853.81;;;18.21;100.00
35151;BME280;55720;51.972;4.624;2022-08-19T05:31:31;101858.94;;;18.19;100.00
35151;BME280;55720;51.972;4.624;2022-08-19T05:33:57;101868.19;;;18.23;100.00
35151;BME280;55720;51.972;4.624;2022-08-19T05:36:27;101867.81;;;18.25;100.00
35151;BME280;55720;51.972;4.624;2022-08-19T05:38:53;101886.28;;;18.33;100.00
35151;BME280;55720;51.972;4.624;2022-08-19T05:41:20;101897.22;;;18.57;100.00
35151;BME280;55720;51.972;4.624;2022-08-19T05:43:46;101902.97;;;18.64;100.00
35151;BME280;55720;51.972;4.624;2022-08-19T05:46:18;101934.34;;;18.80;100.00
35151;BME280;55720;51.972;4.624;2022-08-19T05:48:45;101945.41;;;18.77;100.00
35151;BME280;55720;51.972;4.624;2022-08-19T05:51:12;101980.63;;;18.88;100.00
35151;BME280;55720;51.972;4.624;2022-08-19T05:53:37;102022.69;;;18.99;100.00
35151;BME280;55720;51.972;4.624;2022-08-19T05:56:04;102076.44;;;18.87;100.00
35151;BME280;55720;51.972;4.624;2022-08-19T05:58:30;102115.31;;;19.15;100.00
35151;BME280;55720;51.972;4.624;2022-08-19T06:00:57;102136.97;;;19.53;100.00
35151;BME280;55720;51.972;4.624;2022-08-19T06:03:22;102146.31;;;19.95;100.00
35151;BME280;55720;51.972;4.624;2022-08-19T06:05:48;102141.16;;;20.32;100.00
35151;BME280;55720;51.972;4.624;2022-08-19T06:08:13;102074.28;;;20.58;100.00
35151;BME280;55720;51.972;4.624;2022-08-19T06:10:39;101987.88;;;20.88;100.00
35151;BME280;55720;51.972;4.624;2022-08-19T06:13:04;101909.56;;;20.78;100.00
35151;BME280;55720;51.972;4.624;2022-08-19T06:15:30;101840.44;;;20.68;100.00
35151;BME280;55720;51.972;4.624;2022-08-19T06:17:56;101772.19;;;20.61;100.00
35151;BME280;55720;51.972;4.624;2022-08-19T06:20:21;101726.06;;;20.71;100.00
35151;BME280;55720;51.972;4.624;2022-08-19T06:22:49;101690.75;;;20.86;100.00
35151;BME280;55720;51.972;4.624;2022-08-19T06:25:17;101650.38;;;20.76;100.00
35151;BME280;55720;51.972;4.624;2022-08-19T06:27:43;101577.19;;;20.93;100.00
35151;BME280;55720;51.972;4.624;2022-08-19T06:30:08;101496.13;;;20.79;100.00
35151;BME280;55720;51.972;4.624;2022-08-19T06:32:35;101418.44;;;20.92;100.00
35151;BME280;55720;51.972;4.624;2022-08-19T06:35:00;101351.97;;;21.12;100.00
35151;BME280;55720;51.972;4.624;2022-08-19T06:37:25;101291.81;;;21.39;100.00
35151;BME280;55720;51.972;4.624;2022-08-19T06:39:51;101223.97;;;21.35;100.00
35151;BME280;55720;51.972;4.624;2022-08-19T06:42:17;101155.34;;;21.90;100.00
35151;BME280;55720;51.972;4.624;2022-08-19T06:44:46;101079.81;;;22.12;100.00
35151;BME280;55720;51.972;4.624;2022-08-19T06:47:14;101035.53;;;21.92;100.00
35151;BME280;55720;51.972;4.624;2022-08-19T06:49:41;101014.63;;;22.22;100.00
35151;BME280;55720;51.972;4.624;2022-08-19T06:52:07;100995.38;;;22.38;100.00
35151;BME280;55720;51.972;4.624;2022-08-19T06:54:32;100976.56;;;23.38;100.00
35151;BME280;55720;51.972;4.624;2022-08-19T06:56:59;100964.47;;;24.12;100.00
35151;BME280;55720;51.972;4.624;2022-08-19T06:59:29;100969.81;;;25.10;100.00
35151;BME280;55720;51.972;4.624;2022-08-19T07:01:58;100971.50;;;25.90;100.00
35151;BME280;55720;51.972;4.624;2022-08-19T07:04:29;100979.91;;;26.10;100.00
35151;BME280;55720;51.972;4.624;2022-08-19T07:07:05;100990.81;;;25.88;100.00
35151;BME280;55720;51.972;4.624;2022-08-19T07:09:35;100974.06;;;28.32;100.00
35151;BME280;55720;51.972;4.624;2022-08-19T07:12:07;100964.50;;;29.49;100.00
35151;BME280;55720;51.972;4.624;2022-08-19T07:14:33;101032.25;;;28.17;100.00
35151;BME280;55720;51.972;4.624;2022-08-19T07:17:04;101082.88;;;25.41;100.00
35151;BME280;55720;51.972;4.624;2022-08-19T07:19:30;101084.75;;;24.44;100.00
35151;BME280;55720;51.972;4.624;2022-08-19T07:21:57;101067.41;;;25.06;100.00
35151;BME280;55720;51.972;4.624;2022-08-19T07:24:25;101044.84;;;27.55;100.00
35151;BME280;55720;51.972;4.624;2022-08-19T07:26:53;101080.44;;;29.02;100.00
35151;BME280;55720;51.972;4.624;2022-08-19T07:29:19;101310.59;;;28.76;100.00
35151;BME280;55720;51.972;4.624;2022-08-19T07:31:49;101414.75;;;28.77;100.00
35151;BME280;55720;51.972;4.624;2022-08-19T07:34:14;101460.47;;;29.05;100.00
35151;BME280;55720;51.972;4.624;2022-08-19T07:36:41;101486.97;;;27.91;100.00
35151;BME280;55720;51.972;4.624;2022-08-19T07:39:14;101501.66;;;26.96;100.00
35151;BME280;55720;51.972;4.624;2022-08-19T07:41:40;101481.13;;;26.72;100.00
35151;BME280;55720;51.972;4.624;2022-08-19T07:44:06;101479.97;;;26.43;100.00
35151;BME280;55720;51.972;4.624;2022-08-19T07:46:36;101472.28;;;26.17;100.00
35151;BME280;55720;51.972;4.624;2022-08-19T07:49:03;101450.09;;;26.26;100.00
35151;BME280;55720;51.972;4.624;2022-08-19T07:51:29;101458.78;;;25.78;100.00
35151;BME280;55720;51.972;4.624;2022-08-19T07:53:55;101408.63;;;24.57;100.00
35151;BME280;55720;51.972;4.624;2022-08-19T07:56:21;101326.53;;;23.94;100.00
35151;BME280;55720;51.972;4.624;2022-08-19T07:58:48;101205.25;;;23.21;100.00
35151;BME280;55720;51.972;4.624;2022-08-19T08:01:18;101186.75;;;22.54;100.00
35151;BME280;55720;51.972;4.624;2022-08-19T08:03:44;101175.19;;;22.49;100.00
35151;BME280;55720;51.972;4.624;2022-08-19T08:06:28;101154.44;;;22.32;100.00
35151;BME280;55720;51.972;4.624;2022-08-19T08:09:13;101143.75;;;22.02;100.00
35151;BME280;55720;51.972;4.624;2022-08-19T08:11:58;101138.09;;;22.24;100.00
35151;BME280;55720;51.972;4.624;2022-08-19T08:14:30;101125.69;;;22.21;100.00
35151;BME280;55720;51.972;4.624;2022-08-19T08:16:56;101124.84;;;22.42;100.00
35151;BME280;55720;51.972;4.624;2022-08-19T08:19:24;101117.50;;;22.73;100.00
35151;BME280;55720;51.972;4.624;2022-08-19T08:21:50;101110.63;;;22.88;100.00
35151;BME280;55720;51.972;4.624;2022-08-19T08:24:17;101114.75;;;23.28;100.00
35151;BME280;55720;51.972;4.624;2022-08-19T08:26:43;101101.69;;;23.62;100.00
35151;BME280;55720;51.972;4.624;2022-08-19T08:29:10;101093.97;;;23.70;100.00
35151;BME280;55720;51.972;4.624;2022-08-19T08:31:36;101102.50;;;23.96;100.00
35151;BME280;55720;51.972;4.624;2022-08-19T08:34:02;101100.22;;;24.56;100.00
35151;BME280;55720;51.972;4.624;2022-08-19T08:36:27;101094.88;;;25.68;100.00
35151;BME280;55720;51.972;4.624;2022-08-19T08:38:53;101094.47;;;25.89;100.00
35151;BME280;55720;51.972;4.624;2022-08-19T08:43:53;101109.44;;;25.63;100.00
35151;BME280;55720;51.972;4.624;2022-08-19T08:46:24;101129.38;;;24.65;100.00
35151;BME280;55720;51.972;4.624;2022-08-19T08:49:13;101126.81;;;24.78;100.00
35151;BME280;55720;51.972;4.624;2022-08-19T08:51:51;101119.06;;;24.85;100.00
35151;BME280;55720;51.972;4.624;2022-08-19T08:54:20;101090.94;;;26.84;100.00
35151;BME280;55720;51.972;4.624;2022-08-19T08:56:47;101117.31;;;28.73;100.00
35151;BME280;55720;51.972;4.624;2022-08-19T08:59:21;101172.44;;;28.08;100.00
35151;BME280;55720;51.972;4.624;2022-08-19T09:01:48;101201.94;;;26.47;100.00
35151;BME280;55720;51.972;4.624;2022-08-19T09:04:14;101205.69;;;26.17;100.00
35151;BME280;55720;51.972;4.624;2022-08-19T09:06:52;101178.25;;;27.36;100.00
35151;BME280;55720;51.972;4.624;2022-08-19T09:09:48;101278.34;;;29.94;100.00
35151;BME280;55720;51.972;4.624;2022-08-19T09:12:39;101564.91;;;30.68;100.00
35151;BME280;55720;51.972;4.624;2022-08-19T09:15:09;101604.97;;;31.68;100.00
35151;BME280;55720;51.972;4.624;2022-08-19T09:17:36;101608.69;;;30.55;100.00
35151;BME280;55720;51.972;4.624;2022-08-19T09:22:41;101611.66;;;30.76;100.00
35151;BME280;55720;51.972;4.624;2022-08-19T09:25:12;101614.78;;;31.54;100.00
35151;BME280;55720;51.972;4.624;2022-08-19T09:27:40;101618.41;;;30.54;100.00
35151;BME280;55720;51.972;4.624;2022-08-19T09:30:07;101619.47;;;30.72;100.00
35151;BME280;55720;51.972;4.624;2022-08-19T09:32:33;101625.72;;;30.67;100.00
35151;BME280;55720;51.972;4.624;2022-08-19T09:34:59;101625.91;;;30.19;100.00
35151;BME280;55720;51.972;4.624;2022-08-19T09:37:25;101624.91;;;30.67;100.00
35151;BME280;55720;51.972;4.624;2022-08-19T09:39:51;101622.06;;;30.13;100.00
35151;BME280;55720;51.972;4.624;2022-08-19T09:42:17;101641.63;;;29.14;100.00
35151;BME280;55720;51.972;4.624;2022-08-19T09:44:43;101636.78;;;29.30;100.00
35151;BME280;55720;51.972;4.624;2022-08-19T09:47:10;101648.59;;;28.18;100.00
35151;BME280;55720;51.972;4.624;2022-08-19T09:49:37;101643.03;;;27.45;100.00
35151;BME280;55720;51.972;4.624;2022-08-19T09:52:04;101637.38;;;25.59;100.00
35151;BME280;55720;51.972;4.624;2022-08-19T09:54:29;101553.72;;;24.71;100.00
35151;BME280;55720;51.972;4.624;2022-08-19T09:56:57;101489.03;;;24.33;100.00
35151;BME280;55720;51.972;4.624;2022-08-19T09:59:23;101391.78;;;24.02;100.00
35151;BME280;55720;51.972;4.624;2022-08-19T10:01:49;101290.09;;;23.91;100.00
35151;BME280;55720;51.972;4.624;2022-08-19T10:04:14;101258.69;;;23.55;100.00
35151;BME280;55720;51.972;4.624;2022-08-19T10:06:40;101208.84;;;23.22;100.00
35151;BME280;55720;51.972;4.624;2022-08-19T10:09:08;101177.31;;;23.11;100.00
35151;BME280;55720;51.972;4.624;2022-08-19T10:11:34;101170.59;;;22.94;100.00
35151;BME280;55720;51.972;4.624;2022-08-19T10:14:02;101170.47;;;23.12;100.00
35151;BME280;55720;51.972;4.624;2022-08-19T10:16:28;101148.28;;;23.38;100.00
35151;BME280;55720;51.972;4.624;2022-08-19T10:18:54;101147.09;;;23.84;100.00
35151;BME280;55720;51.972;4.624;2022-08-19T10:21:26;101137.69;;;24.42;100.00
35151;BME280;55720;51.972;4.624;2022-08-19T10:23:54;101121.66;;;25.03;100.00
35151;BME280;55720;51.972;4.624;2022-08-19T10:26:30;101118.81;;;26.00;100.00
35151;BME280;55720;51.972;4.624;2022-08-19T10:28:56;101152.09;;;26.24;100.00
35151;BME280;55720;51.972;4.624;2022-08-19T10:31:33;101207.31;;;25.95;100.00
35151;BME280;55720;51.972;4.624;2022-08-19T10:33:59;101238.34;;;25.38;100.00
35151;BME280;55720;51.972;4.624;2022-08-19T10:36:36;101252.84;;;25.63;100.00
35151;BME280;55720;51.972;4.624;2022-08-19T10:39:06;101253.59;;;25.37;100.00
35151;BME280;55720;51.972;4.624;2022-08-19T10:41:35;101259.44;;;25.23;100.00
35151;BME280;55720;51.972;4.624;2022-08-19T10:44:04;101277.00;;;25.30;100.00
35151;BME280;55720;51.972;4.624;2022-08-19T10:46:31;101289.34;;;25.36;100.00
35151;BME280;55720;51.972;4.624;2022-08-19T10:48:59;101302.41;;;26.30;100.00
35151;BME280;55720;51.972;4.624;2022-08-19T10:51:25;101314.50;;;27.13;100.00
35151;BME280;55720;51.972;4.624;2022-08-19T10:54:09;101347.53;;;27.88;100.00
35151;BME280;55720;51.972;4.624;2022-08-19T10:56:35;101403.56;;;28.06;100.00
35151;BME280;55720;51.972;4.624;2022-08-19T10:59:19;101478.78;;;28.16;100.00
35151;BME280;55720;51.972;4.624;2022-08-19T11:01:46;101532.72;;;28.02;100.00
35151;BME280;55720;51.972;4.624;2022-08-19T11:04:12;101572.25;;;27.35;100.00
35151;BME280;55720;51.972;4.624;2022-08-19T11:06:42;101573.47;;;26.88;100.00
35151;BME280;55720;51.972;4.624;2022-08-19T11:09:08;101579.25;;;26.17;100.00
35151;BME280;55720;51.972;4.624;2022-08-19T11:11:34;101565.38;;;26.03;100.00
35151;BME280;55720;51.972;4.624;2022-08-19T11:14:06;101562.63;;;25.62;100.00
35151;BME280;55720;51.972;4.624;2022-08-19T11:16:31;101571.31;;;25.33;100.00
35151;BME280;55720;51.972;4.624;2022-08-19T11:18:58;101555.91;;;25.04;100.00
35151;BME280;55720;51.972;4.624;2022-08-19T11:21:33;101545.25;;;24.81;100.00
35151;BME280;55720;51.972;4.624;2022-08-19T11:24:03;101523.47;;;24.41;100.00
35151;BME280;55720;51.972;4.624;2022-08-19T11:26:30;101502.72;;;24.17;100.00
35151;BME280;55720;51.972;4.624;2022-08-19T11:28:56;101498.72;;;24.22;100.00
35151;BME280;55720;51.972;4.624;2022-08-19T11:31:25;101486.94;;;24.44;100.00
35151;BME280;55720;51.972;4.624;2022-08-19T11:33:51;101474.00;;;24.58;100.00
35151;BME280;55720;51.972;4.624;2022-08-19T11:36:20;101481.19;;;25.14;100.00
35151;BME280;55720;51.972;4.624;2022-08-19T11:38:47;101474.31;;;25.56;100.00
35151;BME280;55720;51.972;4.624;2022-08-19T11:41:14;101491.69;;;25.81;100.00
35151;BME280;55720;51.972;4.624;2022-08-19T11:43:39;101510.19;;;26.09;100.00
35151;BME280;55720;51.972;4.624;2022-08-19T11:46:14;101510.47;;;26.48;100.00
35151;BME280;55720;51.972;4.624;2022-08-19T11:48:40;101524.03;;;26.83;100.00
35151;BME280;55720;51.972;4.624;2022-08-19T11:51:09;101552.91;;;26.91;100.00
35151;BME280;55720;51.972;4.624;2022-08-19T11:53:37;101565.50;;;26.83;100.00
35151;BME280;55720;51.972;4.624;2022-08-19T11:56:04;101578.59;;;26.66;100.00
35151;BME280;55720;51.972;4.624;2022-08-19T11:58:29;101574.94;;;26.42;100.00
35151;BME280;55720;51.972;4.624;2022-08-19T12:00:55;101579.25;;;26.20;100.00
35151;BME280;55720;51.972;4.624;2022-08-19T12:03:21;101589.69;;;25.86;100.00
35151;BME280;55720;51.972;4.624;2022-08-19T12:05:47;101591.63;;;25.92;100.00
35151;BME280;55720;51.972;4.624;2022-08-19T12:08:13;101580.78;;;25.91;100.00
35151;BME280;55720;51.972;4.624;2022-08-19T12:10:39;101589.03;;;26.05;100.00
35151;BME280;55720;51.972;4.624;2022-08-19T12:13:06;101590.97;;;26.15;100.00
35151;BME280;55720;51.972;4.624;2022-08-19T12:15:36;101596.84;;;26.58;100.00
35151;BME280;55720;51.972;4.624;2022-08-19T12:18:03;101605.25;;;26.62;100.00
35151;BME280;55720;51.972;4.624;2022-08-19T12:20:29;101610.06;;;26.61;100.00
35151;BME280;55720;51.972;4.624;2022-08-19T12:22:54;101613.66;;;26.65;100.00
35151;BME280;55720;51.972;4.624;2022-08-19T12:25:20;101618.88;;;26.63;100.00
35151;BME280;55720;51.972;4.624;2022-08-19T12:27:46;101621.28;;;26.65;100.00
35151;BME280;55720;51.972;4.624;2022-08-19T12:30:12;101629.66;;;26.72;100.00
35151;BME280;55720;51.972;4.624;2022-08-19T12:32:38;101636.03;;;26.76;100.00
35151;BME280;55720;51.972;4.624;2022-08-19T12:35:05;101637.75;;;26.66;100.00
35151;BME280;55720;51.972;4.624;2022-08-19T12:37:31;101635.19;;;26.49;100.00
35151;BME280;55720;51.972;4.624;2022-08-19T12:39:57;101631.88;;;26.23;100.00
35151;BME280;55720;51.972;4.624;2022-08-19T12:42:22;101624.38;;;25.72;100.00
35151;BME280;55720;51.972;4.624;2022-08-19T12:44:48;101618.34;;;25.26;100.00
35151;BME280;55720;51.972;4.624;2022-08-19T12:47:13;101601.00;;;24.86;100.00
35151;BME280;55720;51.972;4.624;2022-08-19T12:49:40;101565.72;;;24.78;100.00
35151;BME280;55720;51.972;4.624;2022-08-19T12:52:07;101521.19;;;25.28;100.00
35151;BME280;55720;51.972;4.624;2022-08-19T12:54:34;101518.69;;;25.75;100.00